createdAt,value
2023-11-15T00:02:08.860Z,21.43
2023-11-15T00:07:00.719Z,21.44
2023-11-15T00:11:52.571Z,21.43
2023-11-15T00:16:44.368Z,21.45
2023-11-15T00:21:36.229Z,21.45
2023-11-15T00:26:30.424Z,21.44
2023-11-15T00:31:23.248Z,21.43
2023-11-15T00:36:15.118Z,21.42
2023-11-15T00:41:09.431Z,21.46
2023-11-15T00:46:01.233Z,21.45
2023-11-15T00:50:53.128Z,21.45
2023-11-15T00:55:45.020Z,21.45
2023-11-15T01:00:49.111Z,21.32
2023-11-15T01:05:40.890Z,21.45
2023-11-15T01:10:35.846Z,21.44
2023-11-15T01:15:27.682Z,21.44
2023-11-15T01:20:19.482Z,21.42
2023-11-15T01:25:13.881Z,21.44
2023-11-15T01:30:06.416Z,21.36
2023-11-15T01:34:58.241Z,21.45
2023-11-15T01:39:50.020Z,21.41
2023-11-15T01:44:41.760Z,21.43
2023-11-15T01:49:33.711Z,21.41
2023-11-15T01:54:25.977Z,21.42
2023-11-15T01:59:17.970Z,21.44
2023-11-15T02:04:10.002Z,21.43
2023-11-15T02:09:01.943Z,21.42
2023-11-15T02:13:53.792Z,21.38
2023-11-15T02:18:45.583Z,21.41
2023-11-15T02:23:43.583Z,21.41
2023-11-15T02:28:35.328Z,21.41
2023-11-15T02:33:27.177Z,21.42
2023-11-15T02:38:19.032Z,21.39
2023-11-15T02:43:10.797Z,21.40
2023-11-15T02:48:03.273Z,21.41
2023-11-15T02:52:55.092Z,21.41
2023-11-15T02:57:46.957Z,21.37
2023-11-15T03:02:38.833Z,21.40
2023-11-15T03:07:30.590Z,21.40
2023-11-15T03:12:22.302Z,21.37
2023-11-15T03:17:16.973Z,21.30
2023-11-15T03:22:08.811Z,21.40
2023-11-15T03:27:00.627Z,21.39
2023-11-15T03:31:52.393Z,21.39
2023-11-15T03:36:44.321Z,21.38
2023-11-15T03:41:36.424Z,21.39
2023-11-15T03:46:28.366Z,21.37
2023-11-15T03:51:20.142Z,21.38
2023-11-15T03:56:11.987Z,21.39
2023-11-15T04:01:05.629Z,21.36
2023-11-15T04:05:57.761Z,21.35
2023-11-15T04:10:50.341Z,21.38
2023-11-15T04:15:42.185Z,21.37
2023-11-15T04:20:34.584Z,21.37
2023-11-15T04:25:26.404Z,21.38
2023-11-15T04:30:18.519Z,21.34
2023-11-15T04:35:10.367Z,21.38
2023-11-15T04:40:02.086Z,21.38
2023-11-15T04:44:54.074Z,21.38
2023-11-15T04:49:46.668Z,21.39
2023-11-15T04:54:38.488Z,21.39
2023-11-15T04:59:30.934Z,21.39
2023-11-15T05:04:23.502Z,21.36
2023-11-15T05:09:15.472Z,21.40
2023-11-15T05:14:08.119Z,21.40
2023-11-15T05:19:01.339Z,21.40
2023-11-15T05:23:53.559Z,21.39
2023-11-15T05:28:45.257Z,21.39
2023-11-15T05:33:37.137Z,21.37
2023-11-15T05:38:29.174Z,21.33
2023-11-15T05:43:21.259Z,21.35
2023-11-15T05:48:13.196Z,21.32
2023-11-15T05:53:06.870Z,21.33
2023-11-15T05:57:58.652Z,21.32
2023-11-15T06:02:52.042Z,21.35
2023-11-15T06:07:44.546Z,21.36
2023-11-15T06:12:36.631Z,21.35
2023-11-15T06:17:30.179Z,21.38
2023-11-15T06:22:24.289Z,21.34
2023-11-15T06:27:16.032Z,21.38
2023-11-15T06:32:07.883Z,21.40
2023-11-15T06:36:59.930Z,21.41
2023-11-15T06:41:51.682Z,21.39
2023-11-15T06:46:43.994Z,21.41
2023-11-15T06:51:35.791Z,21.42
2023-11-15T06:56:27.509Z,21.42
2023-11-15T07:01:19.331Z,21.45
2023-11-15T07:06:11.143Z,21.46
2023-11-15T07:11:03.031Z,21.47
2023-11-15T07:15:54.936Z,21.51
2023-11-15T07:20:48.054Z,21.54
2023-11-15T07:25:39.963Z,21.53
2023-11-15T07:30:34.226Z,21.53
2023-11-15T07:35:27.428Z,21.57
2023-11-15T07:40:19.334Z,21.60
2023-11-15T07:45:11.443Z,21.63
2023-11-15T07:50:04.249Z,21.65
2023-11-15T07:54:59.973Z,21.63
2023-11-15T07:59:53.691Z,21.64
2023-11-15T08:04:45.696Z,21.63
2023-11-15T08:09:37.541Z,21.62
2023-11-15T08:14:31.979Z,21.61
2023-11-15T08:19:23.929Z,21.61
2023-11-15T08:24:22.607Z,21.61
2023-11-15T08:29:14.729Z,21.57
2023-11-15T08:34:06.824Z,21.59
2023-11-15T08:38:59.361Z,21.55
2023-11-15T08:43:51.181Z,21.57
2023-11-15T08:48:43.497Z,21.56
2023-11-15T08:53:36.111Z,21.57
2023-11-15T08:58:30.786Z,21.56
2023-11-15T09:03:22.549Z,21.55
2023-11-15T09:08:15.630Z,21.55
2023-11-15T09:13:11.203Z,21.55
2023-11-15T09:18:07.707Z,21.56
2023-11-15T09:22:59.508Z,21.53
2023-11-15T09:27:53.882Z,21.55
2023-11-15T09:32:51.643Z,21.54
2023-11-15T09:37:44.419Z,21.54
2023-11-15T09:42:40.013Z,21.52
2023-11-15T09:47:32.134Z,21.51
2023-11-15T09:52:25.813Z,21.54
2023-11-15T09:57:20.906Z,21.52
2023-11-15T10:02:12.752Z,21.52
2023-11-15T10:07:06.870Z,21.52
2023-11-15T10:12:03.255Z,21.51
2023-11-15T10:16:55.738Z,21.53
2023-11-15T10:22:05.719Z,21.51
2023-11-15T10:27:12.445Z,21.51
2023-11-15T10:32:05.104Z,21.47
2023-11-15T10:37:11.413Z,21.51
2023-11-15T10:42:03.920Z,21.51
2023-11-15T10:47:03.028Z,21.48
2023-11-15T10:51:55.766Z,21.50
2023-11-15T10:56:50.904Z,21.49
2023-11-15T11:01:42.998Z,21.49
2023-11-15T11:07:09.133Z,21.52
2023-11-15T11:12:07.204Z,21.52
2023-11-15T11:17:00.355Z,21.51
2023-11-15T11:22:03.935Z,21.51
2023-11-15T11:26:55.770Z,21.53
2023-11-15T11:32:17.707Z,21.48
2023-11-15T11:37:09.504Z,21.52
2023-11-15T11:42:01.354Z,21.52
2023-11-15T11:47:04.085Z,21.56
2023-11-15T11:51:56.520Z,21.58
2023-11-15T11:56:50.455Z,21.55
2023-11-15T12:01:51.741Z,21.61
2023-11-15T12:06:43.739Z,21.62
2023-11-15T12:11:35.984Z,21.63
2023-11-15T12:16:28.827Z,21.60
2023-11-15T12:21:22.524Z,21.57
2023-11-15T12:26:16.035Z,21.56
2023-11-15T12:31:09.745Z,21.56
2023-11-15T12:36:04.107Z,21.55
2023-11-15T12:41:07.412Z,21.53
2023-11-15T12:46:01.068Z,21.53
2023-11-15T12:51:03.737Z,21.53
2023-11-15T12:55:55.819Z,21.52
2023-11-15T13:01:01.285Z,21.51
2023-11-15T13:06:18.698Z,21.50
2023-11-15T13:11:14.523Z,21.50
2023-11-15T13:16:13.616Z,21.50
2023-11-15T13:21:08.437Z,21.48
2023-11-15T13:26:03.722Z,21.50
2023-11-15T13:30:55.825Z,21.47
2023-11-15T13:35:47.891Z,21.50
2023-11-15T13:40:42.798Z,21.48
2023-11-15T13:45:34.735Z,21.49
2023-11-15T13:50:26.565Z,21.46
2023-11-15T13:55:18.419Z,21.48
2023-11-15T14:06:29.971Z,21.46
2023-11-15T14:11:23.155Z,21.45
2023-11-15T14:16:15.301Z,21.45
2023-11-15T14:21:07.400Z,21.45
2023-11-15T14:26:00.012Z,21.46
2023-11-15T14:30:53.374Z,21.44
2023-11-15T14:35:45.174Z,21.46
2023-11-15T14:40:39.972Z,21.46
2023-11-15T14:45:34.041Z,21.46
2023-11-15T14:50:26.880Z,21.45
2023-11-15T14:55:19.658Z,21.46
2023-11-15T15:00:17.855Z,21.42
2023-11-15T15:05:10.122Z,21.44
2023-11-15T15:10:02.507Z,21.43
2023-11-15T15:14:54.216Z,21.43
2023-11-15T15:19:46.253Z,21.40
2023-11-15T15:24:38.132Z,21.43
2023-11-15T15:29:29.948Z,21.42
2023-11-15T15:34:23.333Z,21.43
2023-11-15T15:39:16.699Z,21.42
2023-11-15T15:44:09.589Z,21.41
2023-11-15T15:49:01.736Z,21.43
2023-11-15T15:53:54.201Z,21.42
2023-11-15T15:58:46.016Z,21.41
2023-11-15T16:03:37.993Z,21.41
2023-11-15T16:08:29.762Z,21.30
2023-11-15T16:13:21.510Z,21.41
2023-11-15T16:18:13.410Z,21.40
2023-11-15T16:23:05.900Z,21.40
2023-11-15T16:27:57.639Z,21.41
2023-11-15T16:32:49.437Z,21.41
2023-11-15T16:37:42.982Z,21.38
2023-11-15T16:42:35.823Z,21.41
2023-11-15T16:47:27.570Z,21.41
2023-11-15T16:52:20.059Z,21.40
2023-11-15T16:57:12.106Z,21.40
2023-11-15T17:02:04.044Z,21.38
2023-11-15T17:06:57.353Z,21.38
2023-11-15T17:11:51.504Z,21.38
2023-11-15T17:16:45.492Z,21.41
2023-11-15T17:21:40.552Z,21.39
2023-11-15T17:26:32.500Z,21.40
2023-11-15T17:31:25.708Z,21.38
2023-11-15T17:36:17.794Z,21.37
2023-11-15T17:41:10.963Z,21.34
2023-11-15T17:46:03.963Z,21.31
2023-11-15T17:50:55.647Z,21.29
2023-11-15T17:55:47.411Z,21.28
2023-11-15T18:00:39.742Z,21.23
2023-11-15T18:05:31.602Z,21.24
2023-11-15T18:10:28.657Z,21.23
2023-11-15T18:15:21.113Z,21.22
2023-11-15T18:20:13.495Z,21.20
2023-11-15T18:25:05.597Z,21.17
2023-11-15T18:29:59.630Z,21.17
2023-11-15T18:34:51.359Z,21.15
2023-11-15T18:39:43.097Z,21.16
2023-11-15T18:44:34.871Z,21.17
2023-11-15T18:49:26.610Z,21.20
2023-11-15T18:54:18.448Z,21.21
2023-11-15T18:59:10.248Z,21.21
2023-11-15T19:04:02.502Z,21.22
2023-11-15T19:08:54.527Z,21.22
2023-11-15T19:13:47.767Z,21.21
2023-11-15T19:18:39.621Z,21.20
2023-11-15T19:23:31.370Z,21.21
2023-11-15T19:28:23.091Z,21.18
2023-11-15T19:33:15.443Z,21.22
2023-11-15T19:38:07.491Z,21.22
2023-11-15T19:42:59.323Z,21.22
2023-11-15T19:47:51.248Z,21.21
2023-11-15T19:52:45.356Z,21.23
2023-11-15T19:57:38.467Z,21.23
2023-11-15T20:02:34.691Z,21.20
2023-11-15T20:07:32.942Z,21.21
2023-11-15T20:12:24.948Z,21.20
2023-11-15T20:17:16.819Z,21.23
2023-11-15T20:22:08.834Z,21.24
2023-11-15T20:27:00.607Z,21.21
2023-11-15T20:31:52.524Z,21.23
2023-11-15T20:36:44.459Z,21.23
2023-11-15T20:41:37.001Z,21.23
2023-11-15T20:46:28.870Z,21.10
2023-11-15T20:51:22.376Z,21.20
2023-11-15T20:56:14.920Z,21.23
2023-11-15T21:01:07.838Z,21.15
2023-11-15T21:06:04.826Z,21.22
2023-11-15T21:10:57.145Z,21.16
2023-11-15T21:15:49.148Z,21.14
2023-11-15T21:20:41.549Z,21.14
2023-11-15T21:25:34.954Z,21.13
2023-11-15T21:30:26.951Z,21.10
2023-11-15T21:35:19.200Z,21.06
2023-11-15T21:40:16.975Z,21.08
2023-11-15T21:45:08.979Z,21.05
2023-11-15T21:50:01.456Z,21.04
2023-11-15T21:54:53.497Z,21.01
2023-11-15T21:59:45.744Z,21.04
2023-11-15T22:04:37.856Z,21.02
2023-11-15T22:09:29.692Z,20.98
2023-11-15T22:14:21.601Z,20.97
2023-11-15T22:19:13.421Z,20.97
2023-11-15T22:24:06.369Z,20.98
2023-11-15T22:28:58.157Z,20.94
2023-11-15T22:33:52.575Z,20.93
2023-11-15T22:38:45.525Z,20.90
2023-11-15T22:43:37.967Z,20.91
2023-11-15T22:48:29.763Z,20.89
2023-11-15T22:53:22.076Z,20.88
2023-11-15T22:58:13.921Z,20.90
2023-11-15T23:03:11.210Z,20.90
2023-11-15T23:08:04.369Z,20.85
2023-11-15T23:12:56.124Z,20.88
2023-11-15T23:17:50.962Z,20.87
2023-11-15T23:22:43.549Z,20.81
2023-11-15T23:27:38.397Z,20.82
2023-11-15T23:32:31.851Z,20.85
2023-11-15T23:37:23.728Z,20.87
2023-11-15T23:42:15.650Z,20.83
2023-11-15T23:47:07.575Z,20.91
2023-11-15T23:51:59.461Z,20.91
2023-11-15T23:56:51.212Z,20.90
